createdAt,value
2019-03-11T00:01:16.292Z,2.00
2019-03-11T00:03:44.808Z,1.55
2019-03-11T00:06:13.217Z,1.82
2019-03-11T00:08:42.945Z,1.62
2019-03-11T00:11:11.293Z,1.60
2019-03-11T00:13:39.359Z,1.45
2019-03-11T00:16:07.746Z,0.90
2019-03-11T00:18:36.785Z,0.90
2019-03-11T00:21:03.910Z,1.00
2019-03-11T00:23:32.564Z,1.05
2019-03-11T00:26:01.415Z,0.70
2019-03-11T00:28:31.638Z,0.80
2019-03-11T00:30:59.678Z,1.30
2019-03-11T00:33:27.985Z,1.37
2019-03-11T00:35:56.871Z,1.25
2019-03-11T00:38:24.822Z,1.37
2019-03-11T00:40:53.083Z,1.30
2019-03-11T00:43:21.689Z,1.85
2019-03-11T00:45:50.960Z,1.70
2019-03-11T00:48:19.242Z,2.20
2019-03-11T00:50:53.518Z,1.80
2019-03-11T00:53:20.957Z,2.37
2019-03-11T00:55:48.126Z,1.92
2019-03-11T00:58:16.513Z,2.00
2019-03-11T01:00:45.379Z,2.12
2019-03-11T01:03:13.954Z,1.95
2019-03-11T01:05:41.935Z,1.82
2019-03-11T01:08:09.492Z,1.65
2019-03-11T01:10:37.927Z,1.35
2019-03-11T01:13:05.374Z,2.00
2019-03-11T01:15:34.205Z,2.10
2019-03-11T01:18:02.902Z,2.00
2019-03-11T01:20:31.046Z,1.50
2019-03-11T01:23:02.624Z,2.02
2019-03-11T01:25:30.183Z,1.65
2019-03-11T01:27:59.154Z,1.72
2019-03-11T01:30:27.189Z,1.65
2019-03-11T01:32:54.515Z,2.00
2019-03-11T01:35:24.034Z,1.90
2019-03-11T01:37:52.285Z,1.70
2019-03-11T01:40:20.666Z,1.67
2019-03-11T01:42:51.799Z,1.92
2019-03-11T01:45:21.102Z,2.33
2019-03-11T01:47:49.596Z,2.00
2019-03-11T01:50:17.981Z,1.87
2019-03-11T01:52:46.657Z,2.05
2019-03-11T01:55:14.161Z,3.15
2019-03-11T01:57:42.698Z,3.47
2019-03-11T02:00:12.096Z,3.55
2019-03-11T02:02:40.201Z,3.12
2019-03-11T02:05:08.548Z,3.10
2019-03-11T02:07:36.703Z,2.85
2019-03-11T02:10:05.613Z,3.20
2019-03-11T02:12:34.967Z,2.75
2019-03-11T02:15:03.954Z,3.45
2019-03-11T02:17:31.902Z,3.58
2019-03-11T02:20:00.665Z,3.00
2019-03-11T02:22:28.878Z,2.92
2019-03-11T02:24:57.440Z,3.20
2019-03-11T02:27:25.093Z,3.40
2019-03-11T02:29:52.339Z,3.70
2019-03-11T02:32:19.714Z,3.20
2019-03-11T02:34:47.247Z,3.00
2019-03-11T02:37:15.949Z,3.25
2019-03-11T02:39:44.831Z,2.83
2019-03-11T02:42:13.165Z,3.10
2019-03-11T02:44:41.858Z,3.10
2019-03-11T02:47:10.584Z,3.10
2019-03-11T02:49:38.512Z,2.98
2019-03-11T02:52:07.342Z,2.75
2019-03-11T02:54:35.920Z,2.83
2019-03-11T02:57:04.125Z,2.40
2019-03-11T02:59:32.386Z,2.92
2019-03-11T03:02:12.939Z,2.60
2019-03-11T03:04:44.087Z,2.58
2019-03-11T03:07:12.146Z,2.42
2019-03-11T03:09:40.740Z,2.77
2019-03-11T03:12:09.623Z,2.45
2019-03-11T03:14:37.742Z,3.00
2019-03-11T03:17:05.800Z,2.50
2019-03-11T03:19:34.987Z,2.50
2019-03-11T03:22:03.131Z,3.10
2019-03-11T03:24:30.281Z,3.17
2019-03-11T03:26:58.016Z,3.58
2019-03-11T03:29:25.827Z,2.77
2019-03-11T03:31:53.590Z,3.00
2019-03-11T03:34:20.766Z,2.83
2019-03-11T03:36:48.336Z,2.92
2019-03-11T03:39:16.906Z,2.80
2019-03-11T03:41:45.017Z,3.05
2019-03-11T03:44:13.519Z,2.62
2019-03-11T03:46:42.220Z,2.87
2019-03-11T03:49:10.607Z,3.08
2019-03-11T03:51:39.194Z,2.58
2019-03-11T03:54:07.593Z,3.58
2019-03-11T03:56:35.866Z,2.60
2019-03-11T03:59:03.529Z,2.87
2019-03-11T04:01:30.681Z,3.25
2019-03-11T04:03:57.822Z,2.87
2019-03-11T04:06:25.254Z,2.67
2019-03-11T04:08:53.855Z,2.17
2019-03-11T04:11:22.482Z,2.10
2019-03-11T04:13:51.223Z,2.90
2019-03-11T04:16:19.904Z,2.67
2019-03-11T04:18:53.272Z,2.52
2019-03-11T04:21:22.142Z,2.10
2019-03-11T04:23:50.819Z,2.83
2019-03-11T04:26:19.234Z,2.20
2019-03-11T04:28:47.494Z,2.35
2019-03-11T04:31:16.010Z,1.90
2019-03-11T04:33:43.710Z,1.95
2019-03-11T04:36:11.638Z,2.60
2019-03-11T04:38:39.208Z,1.80
2019-03-11T04:41:07.378Z,2.30
2019-03-11T04:43:35.669Z,2.22
2019-03-11T04:46:04.319Z,2.65
2019-03-11T04:48:33.216Z,2.87
2019-03-11T04:51:01.535Z,3.35
2019-03-11T04:53:29.786Z,2.92
2019-03-11T04:55:58.282Z,3.02
2019-03-11T04:58:27.034Z,3.12
2019-03-11T05:00:55.250Z,4.05
2019-03-11T05:03:23.308Z,3.70
2019-03-11T05:05:51.784Z,3.02
2019-03-11T05:08:19.434Z,3.58
2019-03-11T05:10:47.096Z,2.58
2019-03-11T05:13:14.731Z,3.37
2019-03-11T05:15:42.118Z,2.60
2019-03-11T05:18:10.852Z,2.80
2019-03-11T05:20:38.812Z,2.67
2019-03-11T05:23:06.990Z,3.60
2019-03-11T05:25:35.763Z,2.52
2019-03-11T05:28:04.238Z,2.67
2019-03-11T05:30:33.055Z,2.80
2019-03-11T05:33:02.110Z,3.75
2019-03-11T05:35:33.695Z,3.30
2019-03-11T05:38:02.247Z,3.55
2019-03-11T05:40:30.542Z,2.15
2019-03-11T05:42:57.825Z,3.17
2019-03-11T05:45:26.790Z,3.25
2019-03-11T05:47:54.171Z,3.42
2019-03-11T05:50:21.616Z,2.80
2019-03-11T05:52:52.366Z,3.95
2019-03-11T05:55:20.514Z,3.52
2019-03-11T05:57:48.969Z,3.92
2019-03-11T06:00:21.238Z,2.72
2019-03-11T06:02:49.435Z,3.35
2019-03-11T06:05:17.894Z,3.40
2019-03-11T06:07:50.019Z,3.20
2019-03-11T06:10:19.410Z,2.85
2019-03-11T06:12:47.625Z,3.20
2019-03-11T06:15:17.753Z,2.50
2019-03-11T06:17:46.904Z,3.15
2019-03-11T06:20:32.538Z,2.62
2019-03-11T06:23:05.873Z,3.25
2019-03-11T06:25:33.283Z,3.30
2019-03-11T06:28:00.346Z,3.50
2019-03-11T06:30:28.202Z,2.92
2019-03-11T06:32:55.593Z,2.65
2019-03-11T06:35:23.730Z,3.60
2019-03-11T06:37:52.127Z,5.00
2019-03-11T06:40:20.590Z,5.95
2019-03-11T06:42:48.825Z,6.00
2019-03-11T06:45:17.264Z,6.25
2019-03-11T06:47:45.612Z,5.35
2019-03-11T06:50:14.928Z,5.78
2019-03-11T06:52:43.425Z,5.20
2019-03-11T06:55:18.787Z,5.30
2019-03-11T06:57:46.613Z,4.87
2019-03-11T07:00:14.588Z,5.08
2019-03-11T07:02:41.602Z,4.95
2019-03-11T07:05:19.356Z,5.22
2019-03-11T07:07:42.703Z,5.50
2019-03-11T07:10:09.941Z,6.00
2019-03-11T07:12:38.838Z,6.35
2019-03-11T07:15:08.069Z,6.10
2019-03-11T07:17:36.725Z,6.12
2019-03-11T07:20:06.118Z,7.08
2019-03-11T07:22:35.474Z,6.15
2019-03-11T07:25:04.106Z,6.37
2019-03-11T07:27:35.416Z,6.95
2019-03-11T07:30:04.848Z,6.00
2019-03-11T07:32:32.063Z,6.10
2019-03-11T07:35:08.017Z,6.53
2019-03-11T07:37:28.656Z,7.28
2019-03-11T07:39:57.147Z,6.40
2019-03-11T07:42:24.797Z,7.40
2019-03-11T07:44:53.196Z,7.55
2019-03-11T07:47:21.974Z,6.58
2019-03-11T07:49:50.015Z,7.15
2019-03-11T07:52:18.642Z,8.58
2019-03-11T07:54:46.760Z,8.15
2019-03-11T07:57:15.188Z,8.93
2019-03-11T07:59:43.486Z,8.43
2019-03-11T08:02:19.383Z,7.62
2019-03-11T08:04:48.078Z,9.13
2019-03-11T08:07:15.379Z,8.13
2019-03-11T08:09:43.337Z,7.65
2019-03-11T08:12:11.298Z,8.38
2019-03-11T08:14:39.250Z,9.18
2019-03-11T08:17:07.977Z,8.05
2019-03-11T08:19:36.327Z,8.38
2019-03-11T08:22:05.278Z,9.05
2019-03-11T08:24:33.743Z,7.67
2019-03-11T08:27:02.637Z,8.85
2019-03-11T08:29:30.948Z,8.13
2019-03-11T08:31:59.455Z,8.40
2019-03-11T08:34:29.266Z,8.10
2019-03-11T08:36:57.851Z,8.10
2019-03-11T08:39:26.074Z,8.15
2019-03-11T08:41:53.686Z,7.55
2019-03-11T08:44:20.742Z,6.83
2019-03-11T08:46:48.523Z,7.53
2019-03-11T08:49:16.263Z,8.20
2019-03-11T08:51:43.357Z,7.50
2019-03-11T08:54:11.899Z,7.10
2019-03-11T08:56:40.276Z,7.03
2019-03-11T08:59:09.269Z,6.70
2019-03-11T09:01:37.650Z,7.53
2019-03-11T09:04:06.334Z,6.75
2019-03-11T09:06:35.015Z,6.35
2019-03-11T09:09:05.658Z,7.55
2019-03-11T09:11:34.226Z,8.10
2019-03-11T09:14:02.823Z,6.83
2019-03-11T09:16:30.018Z,5.80
2019-03-11T09:18:57.423Z,6.37
2019-03-11T09:21:24.678Z,5.30
2019-03-11T09:23:51.921Z,5.85
2019-03-11T09:26:19.554Z,7.00
2019-03-11T09:28:47.206Z,7.10
2019-03-11T09:31:15.636Z,6.17
2019-03-11T09:33:44.648Z,6.75
2019-03-11T09:36:12.998Z,7.72
2019-03-11T09:38:41.338Z,7.42
2019-03-11T09:41:11.709Z,7.95
2019-03-11T09:43:44.740Z,6.28
2019-03-11T09:46:13.031Z,6.87
2019-03-11T09:48:41.266Z,6.70
2019-03-11T09:51:09.652Z,7.65
2019-03-11T09:53:37.318Z,5.85
2019-03-11T09:56:04.586Z,6.45
2019-03-11T09:58:31.642Z,6.35
2019-03-11T10:00:58.805Z,5.87
2019-03-11T10:03:26.414Z,6.40
2019-03-11T10:05:55.035Z,6.50
2019-03-11T10:08:23.159Z,5.95
2019-03-11T10:10:53.898Z,5.47
2019-03-11T10:13:22.262Z,4.95
2019-03-11T10:15:50.655Z,5.30
2019-03-11T10:18:18.719Z,5.85
2019-03-11T10:20:46.997Z,5.90
2019-03-11T10:23:16.530Z,6.80
2019-03-11T10:25:44.116Z,6.12
2019-03-11T10:28:11.419Z,7.05
2019-03-11T10:30:38.563Z,8.70
2019-03-11T10:33:13.978Z,7.42
2019-03-11T10:35:41.142Z,7.60
2019-03-11T10:38:09.629Z,6.70
2019-03-11T10:40:37.788Z,6.30
2019-03-11T10:43:06.054Z,6.28
2019-03-11T10:45:34.538Z,6.10
2019-03-11T10:48:03.097Z,6.35
2019-03-11T10:50:31.422Z,5.90
2019-03-11T10:52:58.827Z,6.00
2019-03-11T10:55:25.978Z,6.62
2019-03-11T10:57:59.592Z,7.00
2019-03-11T11:00:27.943Z,6.60
2019-03-11T11:02:56.287Z,6.15
2019-03-11T11:05:29.346Z,6.45
2019-03-11T11:07:57.413Z,5.42
2019-03-11T11:10:25.870Z,5.08
2019-03-11T11:12:54.166Z,6.22
2019-03-11T11:15:22.362Z,5.95
2019-03-11T11:17:50.643Z,5.92
2019-03-11T11:20:18.889Z,7.37
2019-03-11T11:22:46.159Z,6.60
2019-03-11T11:25:15.084Z,6.70
2019-03-11T11:27:42.255Z,5.90
2019-03-11T11:30:12.854Z,5.80
2019-03-11T11:32:41.030Z,5.45
2019-03-11T11:35:09.570Z,7.45
2019-03-11T11:37:37.726Z,3.90
2019-03-11T11:40:08.847Z,4.28
2019-03-11T11:42:39.848Z,4.40
2019-03-11T11:45:09.708Z,2.83
2019-03-11T11:47:37.826Z,3.00
2019-03-11T11:50:08.082Z,2.92
2019-03-11T11:52:36.287Z,3.17
2019-03-11T11:55:04.546Z,3.00
2019-03-11T11:57:33.891Z,3.70
2019-03-11T12:00:00.978Z,3.47
2019-03-11T12:02:28.118Z,3.37
2019-03-11T12:04:56.425Z,3.20
2019-03-11T12:07:24.585Z,3.58
2019-03-11T12:09:52.905Z,4.05
2019-03-11T12:12:21.141Z,3.62
2019-03-11T12:14:49.099Z,3.12
2019-03-11T12:17:17.356Z,4.20
2019-03-11T12:19:47.490Z,3.55
2019-03-11T12:22:15.884Z,3.27
2019-03-11T12:24:44.142Z,3.50
2019-03-11T12:27:11.199Z,2.83
2019-03-11T12:29:38.290Z,3.02
2019-03-11T12:32:05.438Z,2.70
2019-03-11T12:34:32.930Z,2.65
2019-03-11T12:37:01.115Z,2.40
2019-03-11T12:39:29.286Z,2.58
2019-03-11T12:41:57.718Z,1.98
2019-03-11T12:44:25.978Z,2.30
2019-03-11T12:46:54.663Z,2.85
2019-03-11T12:49:22.708Z,2.40
2019-03-11T12:51:51.155Z,2.65
2019-03-11T12:54:22.111Z,3.10
2019-03-11T12:56:49.659Z,3.70
2019-03-11T12:59:18.050Z,3.90
2019-03-11T13:01:47.749Z,3.00
2019-03-11T13:04:18.366Z,3.25
2019-03-11T13:06:47.268Z,2.90
2019-03-11T13:09:16.075Z,2.58
2019-03-11T13:11:44.286Z,2.40
2019-03-11T13:14:13.490Z,3.45
2019-03-11T13:16:41.775Z,2.95
2019-03-11T13:19:13.527Z,2.70
2019-03-11T13:21:42.082Z,3.80
2019-03-11T13:24:13.566Z,3.15
2019-03-11T13:26:42.306Z,3.25
2019-03-11T13:29:11.048Z,1.92
2019-03-11T13:31:38.652Z,2.62
2019-03-11T13:34:06.574Z,1.90
2019-03-11T13:36:34.542Z,1.42
2019-03-11T13:39:02.202Z,1.67
2019-03-11T13:41:29.682Z,1.70
2019-03-11T13:43:58.446Z,1.70
2019-03-11T13:46:27.358Z,2.47
2019-03-11T13:48:56.326Z,2.40
2019-03-11T13:51:25.118Z,2.98
2019-03-11T13:53:53.250Z,2.05
2019-03-11T13:56:21.874Z,2.35
2019-03-11T13:58:50.665Z,1.80
2019-03-11T14:01:21.282Z,2.37
2019-03-11T14:03:51.336Z,2.42
2019-03-11T14:06:19.689Z,2.85
2019-03-11T14:08:48.179Z,2.12
2019-03-11T14:11:16.874Z,2.25
2019-03-11T14:13:45.558Z,2.42
2019-03-11T14:16:14.642Z,5.03
2019-03-11T14:18:42.945Z,2.10
2019-03-11T14:21:11.702Z,1.65
2019-03-11T14:23:40.397Z,1.75
2019-03-11T14:26:09.079Z,1.52
2019-03-11T14:28:36.375Z,1.95
2019-03-11T14:31:03.518Z,1.87
2019-03-11T14:33:30.735Z,1.77
2019-03-11T14:35:57.894Z,3.30
2019-03-11T14:38:25.294Z,1.62
2019-03-11T14:40:53.457Z,2.33
2019-03-11T14:43:22.069Z,2.00
2019-03-11T14:45:50.734Z,2.62
2019-03-11T14:48:19.542Z,1.90
2019-03-11T14:50:48.633Z,2.10
2019-03-11T14:53:17.050Z,1.90
2019-03-11T14:55:44.978Z,1.87
2019-03-11T14:58:13.195Z,1.92
2019-03-11T15:00:40.334Z,1.87
2019-03-11T15:03:07.475Z,1.70
2019-03-11T15:05:34.563Z,2.77
2019-03-11T15:08:01.622Z,1.45
2019-03-11T15:10:29.171Z,1.45
2019-03-11T15:12:57.918Z,2.25
2019-03-11T15:15:26.097Z,2.08
2019-03-11T15:17:54.827Z,2.08
2019-03-11T15:20:24.359Z,1.85
2019-03-11T15:22:53.186Z,2.00
2019-03-11T15:25:21.810Z,1.55
2019-03-11T15:27:49.942Z,1.72
2019-03-11T15:30:18.196Z,1.40
2019-03-11T15:32:45.517Z,1.77
2019-03-11T15:35:13.006Z,1.50
2019-03-11T15:37:40.853Z,1.17
2019-03-11T15:40:09.898Z,0.90
2019-03-11T15:42:37.378Z,1.75
2019-03-11T15:45:06.753Z,1.00
2019-03-11T15:47:35.442Z,1.00
2019-03-11T15:50:05.308Z,1.70
2019-03-11T15:52:34.575Z,1.42
2019-03-11T15:55:02.909Z,1.47
2019-03-11T15:57:38.679Z,2.27
2019-03-11T16:00:01.820Z,1.67
2019-03-11T16:02:30.299Z,1.50
2019-03-11T16:04:58.803Z,1.55
2019-03-11T16:07:26.097Z,1.92
2019-03-11T16:09:53.826Z,2.15
2019-03-11T16:12:20.976Z,1.98
2019-03-11T16:14:49.657Z,2.08
2019-03-11T16:17:18.782Z,1.45
2019-03-11T16:19:47.239Z,2.10
2019-03-11T16:22:23.372Z,2.42
2019-03-11T16:24:46.217Z,1.45
2019-03-11T16:27:14.898Z,1.50
2019-03-11T16:29:44.028Z,2.60
2019-03-11T16:32:12.567Z,3.05
2019-03-11T16:34:40.845Z,3.15
2019-03-11T16:37:09.633Z,2.08
2019-03-11T16:39:37.186Z,2.42
2019-03-11T16:42:04.590Z,2.60
2019-03-11T16:44:32.027Z,2.90
2019-03-11T16:46:59.400Z,2.10
2019-03-11T16:49:27.081Z,1.75
2019-03-11T16:51:55.166Z,2.12
2019-03-11T16:54:23.371Z,1.90
2019-03-11T16:56:51.418Z,1.77
2019-03-11T16:59:19.362Z,1.70
2019-03-11T17:01:47.615Z,1.50
2019-03-11T17:04:15.679Z,1.65
2019-03-11T17:06:43.814Z,1.70
2019-03-11T17:09:12.198Z,1.72
2019-03-11T17:11:39.525Z,1.05
2019-03-11T17:14:06.832Z,2.12
2019-03-11T17:16:33.900Z,2.30
2019-03-11T17:19:01.118Z,2.17
2019-03-11T17:21:29.249Z,1.77
2019-03-11T17:23:57.322Z,1.87
2019-03-11T17:26:25.573Z,1.90
2019-03-11T17:28:53.730Z,2.00
2019-03-11T17:31:21.965Z,1.87
2019-03-11T17:33:50.018Z,1.75
2019-03-11T17:36:18.094Z,1.60
2019-03-11T17:38:46.350Z,1.98
2019-03-11T17:41:13.489Z,1.45
2019-03-11T17:43:40.869Z,1.90
2019-03-11T17:46:08.010Z,1.82
2019-03-11T17:48:35.264Z,1.70
2019-03-11T17:51:03.215Z,2.37
2019-03-11T17:53:31.374Z,1.62
2019-03-11T17:55:59.631Z,1.75
2019-03-11T17:58:28.094Z,1.87
2019-03-11T18:00:56.364Z,2.00
2019-03-11T18:03:24.410Z,2.00
2019-03-11T18:05:52.552Z,1.90
2019-03-11T18:08:20.826Z,2.20
2019-03-11T18:10:48.117Z,2.37
2019-03-11T18:13:15.772Z,2.30
2019-03-11T18:15:42.983Z,2.12
2019-03-11T18:18:10.142Z,2.72
2019-03-11T18:20:37.412Z,2.15
2019-03-11T18:23:05.919Z,2.17
2019-03-11T18:25:34.438Z,2.25
2019-03-11T18:28:02.791Z,2.08
2019-03-11T18:30:31.013Z,2.20
2019-03-11T18:33:00.229Z,2.27
2019-03-11T18:35:30.182Z,2.42
2019-03-11T18:38:04.048Z,2.05
2019-03-11T18:40:29.032Z,2.30
2019-03-11T18:42:56.826Z,1.90
2019-03-11T18:45:23.961Z,2.15
2019-03-11T18:47:51.550Z,2.60
2019-03-11T18:50:19.166Z,1.82
2019-03-11T18:52:46.270Z,2.30
2019-03-11T18:55:14.435Z,1.65
2019-03-11T18:57:42.775Z,2.50
2019-03-11T19:00:12.721Z,1.52
2019-03-11T19:02:41.223Z,2.17
2019-03-11T19:05:10.189Z,2.05
2019-03-11T19:07:38.590Z,2.50
2019-03-11T19:10:07.878Z,2.40
2019-03-11T19:12:36.243Z,2.17
2019-03-11T19:15:04.238Z,2.60
2019-03-11T19:17:31.533Z,3.05
2019-03-11T19:19:59.955Z,2.55
2019-03-11T19:22:27.218Z,2.15
2019-03-11T19:24:54.197Z,1.77
2019-03-11T19:27:22.357Z,1.85
2019-03-11T19:29:50.374Z,2.75
2019-03-11T19:32:18.826Z,2.40
2019-03-11T19:34:47.034Z,2.20
2019-03-11T19:37:15.204Z,2.25
2019-03-11T19:39:43.532Z,1.85
2019-03-11T19:42:11.801Z,2.17
2019-03-11T19:44:40.354Z,2.40
2019-03-11T19:47:07.434Z,2.00
2019-03-11T19:49:35.972Z,1.90
2019-03-11T19:52:03.120Z,2.17
2019-03-11T19:54:30.310Z,1.80
2019-03-11T19:56:58.519Z,2.85
2019-03-11T19:59:26.658Z,2.50
2019-03-11T20:01:54.817Z,3.15
2019-03-11T20:04:23.566Z,2.80
2019-03-11T20:06:51.888Z,2.35
2019-03-11T20:09:20.354Z,2.62
2019-03-11T20:11:48.390Z,3.02
2019-03-11T20:14:16.673Z,2.67
2019-03-11T20:16:44.952Z,2.80
2019-03-11T20:19:12.426Z,2.77
2019-03-11T20:21:39.769Z,2.00
2019-03-11T20:24:07.184Z,2.70
2019-03-11T20:26:35.378Z,2.45
2019-03-11T20:29:06.010Z,2.02
2019-03-11T20:31:33.602Z,2.45
2019-03-11T20:34:01.760Z,2.12
2019-03-11T20:36:29.908Z,2.92
2019-03-11T20:38:58.058Z,2.12
2019-03-11T20:41:26.794Z,1.80
2019-03-11T20:43:54.899Z,1.92
2019-03-11T20:46:23.142Z,1.90
2019-03-11T20:48:51.407Z,2.15
2019-03-11T20:51:18.405Z,2.00
2019-03-11T20:53:45.377Z,2.20
2019-03-11T20:56:12.498Z,2.98
2019-03-11T20:58:39.572Z,2.30
2019-03-11T21:01:09.262Z,2.72
2019-03-11T21:03:37.527Z,2.90
2019-03-11T21:06:05.794Z,3.40
2019-03-11T21:08:34.193Z,2.95
2019-03-11T21:11:02.519Z,2.60
2019-03-11T21:13:31.757Z,3.10
2019-03-11T21:16:00.490Z,3.30
2019-03-11T21:18:28.999Z,3.10
2019-03-11T21:21:04.633Z,3.08
2019-03-11T21:23:26.372Z,3.00
2019-03-11T21:25:56.535Z,3.20
2019-03-11T21:28:22.568Z,3.08
2019-03-11T21:30:50.174Z,3.35
2019-03-11T21:33:18.623Z,2.83
2019-03-11T21:35:46.679Z,2.35
2019-03-11T21:38:15.624Z,3.95
2019-03-11T21:40:44.209Z,2.30
2019-03-11T21:43:13.037Z,2.42
2019-03-11T21:45:41.603Z,3.08
2019-03-11T21:48:10.122Z,2.25
2019-03-11T21:50:38.888Z,2.15
2019-03-11T21:53:06.564Z,2.17
2019-03-11T21:55:33.708Z,2.02
2019-03-11T21:58:12.560Z,1.77
2019-03-11T22:00:35.089Z,2.60
2019-03-11T22:03:01.485Z,2.47
2019-03-11T22:05:30.065Z,3.45
2019-03-11T22:07:58.121Z,2.42
2019-03-11T22:10:26.488Z,2.15
2019-03-11T22:12:54.900Z,2.60
2019-03-11T22:15:23.380Z,2.95
2019-03-11T22:17:51.545Z,3.30
2019-03-11T22:20:20.244Z,2.90
2019-03-11T22:22:48.863Z,3.47
2019-03-11T22:25:16.056Z,3.30
2019-03-11T22:27:43.367Z,3.22
2019-03-11T22:30:15.475Z,3.92
2019-03-11T22:32:43.258Z,3.70
2019-03-11T22:35:12.954Z,3.83
2019-03-11T22:37:40.785Z,3.90
2019-03-11T22:40:09.730Z,3.83
2019-03-11T22:42:37.887Z,4.10
2019-03-11T22:45:08.022Z,4.15
2019-03-11T22:47:36.908Z,3.30
2019-03-11T22:50:05.532Z,4.05
2019-03-11T22:52:34.228Z,3.77
2019-03-11T22:55:02.643Z,3.20
2019-03-11T22:57:30.939Z,3.80
2019-03-11T22:59:58.428Z,3.47
2019-03-11T23:02:25.855Z,3.45
2019-03-11T23:04:53.626Z,3.30
2019-03-11T23:07:21.570Z,3.67
2019-03-11T23:09:49.588Z,3.10
2019-03-11T23:12:18.650Z,3.02
2019-03-11T23:14:47.339Z,3.70
2019-03-11T23:17:15.894Z,3.55
2019-03-11T23:19:44.298Z,3.12
2019-03-11T23:22:12.980Z,4.15
2019-03-11T23:24:41.578Z,3.58
2019-03-11T23:27:09.706Z,3.20
2019-03-11T23:29:37.614Z,3.02
2019-03-11T23:32:04.925Z,2.92
2019-03-11T23:34:32.365Z,3.42
2019-03-11T23:39:39.179Z,3.33
2019-03-11T23:42:06.239Z,3.55
2019-03-11T23:44:34.825Z,3.50
2019-03-11T23:47:02.902Z,3.35
2019-03-11T23:49:31.037Z,3.52
2019-03-11T23:51:58.980Z,3.10
2019-03-11T23:54:27.019Z,3.20
2019-03-11T23:56:55.330Z,3.17
2019-03-11T23:59:23.361Z,3.30
